Time;durP1;ratioP1;P1;durP2;ratioP2;P2;SDS_P1;SDS_P2;PMS_P1;PMS_P2;Temp;Humidity;BMP_temperature;BMP_pressure;BME280_temperature;BME280_humidity;BME280_pressure;Samples;Min_cycle;Max_cycle;Signal;HPM_P1;HPM_P2
2023/08/10 00:00:08;;;;;;;14.87;8.50;;;;;;;;;;4305946;33;20080;-81
2023/08/10 02:00:12;;;;;;;8.40;7.45;;;;;;;;;;5088224;27;20065;31
2023/08/10 02:02:42;;;;;;;13.35;9.48;;;;;;;;;;4321335;33;20078;-81
2023/08/10 02:05:10;;;;;;;13.88;9.10;;;;;;;;;;4292893;33;20075;-84
2023/08/10 02:07:36;;;;;;;12.70;9.85;;;;;;;;;;4292570;33;20057;-80
2023/08/10 02:10:02;;;;;;;11.90;9.23;;;;;;;;;;4295671;33;20183;-80
2023/08/10 02:12:30;;;;;;;14.52;9.40;;;;;;;;;;4292943;33;20469;-80
2023/08/10 02:14:58;;;;;;;12.55;8.63;;;;;;;;;;4293924;33;20049;-81
2023/08/10 02:17:25;;;;;;;11.88;9.55;;;;;;;;;;4293743;33;20053;-83
2023/08/10 02:19:51;;;;;;;13.18;9.02;;;;;;;;;;4294673;33;20032;-80
2023/08/10 02:22:19;;;;;;;10.85;9.10;;;;;;;;;;4294096;33;20045;-80
2023/08/10 02:24:46;;;;;;;10.93;8.98;;;;;;;;;;4293915;33;20033;-80
2023/08/10 02:27:12;;;;;;;12.88;8.85;;;;;;;;;;4294365;33;20041;-80
2023/08/10 02:29:38;;;;;;;13.25;10.02;;;;;;;;;;4291201;33;20376;-81
2023/08/10 02:32:05;;;;;;;10.13;8.65;;;;;;;;;;4292642;33;20463;-80
2023/08/10 02:34:31;;;;;;;10.98;8.68;;;;;;;;;;4270856;33;20033;-80
2023/08/10 02:36:58;;;;;;;12.27;9.38;;;;;;;;;;4287759;33;20462;-80
2023/08/10 02:39:24;;;;;;;13.65;8.55;;;;;;;;;;4308740;33;20037;-80
2023/08/10 02:41:50;;;;;;;12.57;9.15;;;;;;;;;;4308086;33;20057;-83
2023/08/10 02:44:17;;;;;;;11.00;9.02;;;;;;;;;;4310522;33;20049;-80
2023/08/10 02:46:43;;;;;;;14.45;10.88;;;;;;;;;;4311513;33;20066;-80
2023/08/10 02:49:09;;;;;;;13.05;9.57;;;;;;;;;;4312019;33;20418;-80
2023/08/10 02:51:35;;;;;;;9.65;8.05;;;;;;;;;;4309140;33;20064;-80
2023/08/10 02:54:01;;;;;;;12.60;8.63;;;;;;;;;;4308570;33;20057;-80
2023/08/10 02:56:28;;;;;;;12.45;9.63;;;;;;;;;;4311566;33;20889;-81
2023/08/10 02:58:53;;;;;;;9.85;8.35;;;;;;;;;;4310007;33;20066;-80
2023/08/10 03:01:21;;;;;;;11.98;8.95;;;;;;;;;;4310995;33;20052;-80
2023/08/10 03:03:47;;;;;;;17.08;10.60;;;;;;;;;;4321664;33;20451;-83
2023/08/10 03:06:13;;;;;;;14.30;10.68;;;;;;;;;;4320000;33;20078;-80
2023/08/10 03:08:40;;;;;;;17.20;10.98;;;;;;;;;;4322203;33;20319;-81
2023/08/10 03:11:06;;;;;;;12.18;8.70;;;;;;;;;;4323044;33;20074;-80
2023/08/10 03:13:32;;;;;;;12.98;10.00;;;;;;;;;;4323319;33;20036;-80
2023/08/10 03:15:58;;;;;;;13.77;8.98;;;;;;;;;;4321579;33;20060;-80
2023/08/10 03:18:25;;;;;;;10.75;8.77;;;;;;;;;;4322480;33;20364;-80
2023/08/10 03:20:51;;;;;;;10.68;7.97;;;;;;;;;;4322301;33;20052;-80
2023/08/10 03:23:18;;;;;;;13.68;7.82;;;;;;;;;;4323036;33;20066;-79
2023/08/10 03:25:44;;;;;;;13.60;8.45;;;;;;;;;;4322610;33;20058;-79
2023/08/10 03:28:10;;;;;;;9.45;7.95;;;;;;;;;;4306583;33;20048;-80
2023/08/10 03:30:37;;;;;;;9.63;8.32;;;;;;;;;;4293571;33;20056;-80
2023/08/10 03:33:03;;;;;;;11.90;8.45;;;;;;;;;;4294057;33;20429;-80
2023/08/10 03:35:30;;;;;;;21.15;10.93;;;;;;;;;;4282425;33;20079;-79
2023/08/10 03:37:56;;;;;;;11.52;9.73;;;;;;;;;;4280127;33;20075;-80
2023/08/10 03:40:22;;;;;;;20.60;10.75;;;;;;;;;;4278633;33;20069;-79
2023/08/10 03:42:48;;;;;;;17.20;12.13;;;;;;;;;;4279808;33;20041;-80
2023/08/10 03:45:15;;;;;;;12.80;10.45;;;;;;;;;;4280392;33;20057;-80
2023/08/10 03:47:41;;;;;;;11.95;9.45;;;;;;;;;;4277794;33;20089;-80
2023/08/10 03:50:07;;;;;;;13.00;9.13;;;;;;;;;;4275565;33;20053;-81
2023/08/10 03:52:34;;;;;;;12.93;8.98;;;;;;;;;;4278986;33;20366;-80
2023/08/10 03:55:00;;;;;;;14.18;9.30;;;;;;;;;;4278483;33;20050;-80
2023/08/10 03:57:27;;;;;;;13.27;9.52;;;;;;;;;;4279158;33;20063;-79
2023/08/10 03:59:53;;;;;;;12.77;10.20;;;;;;;;;;4289985;33;20070;-83
2023/08/10 04:02:19;;;;;;;15.57;10.73;;;;;;;;;;4292839;33;20455;-80
2023/08/10 04:04:46;;;;;;;16.00;10.23;;;;;;;;;;4294613;33;20075;-80
2023/08/10 04:07:12;;;;;;;15.20;10.77;;;;;;;;;;4296187;33;20025;-80
2023/08/10 04:09:44;;;;;;;15.40;10.52;;;;;;;;;;4314033;33;20075;-79
2023/08/10 04:12:10;;;;;;;13.82;10.57;;;;;;;;;;4312738;33;20066;-79
2023/08/10 04:14:36;;;;;;;21.85;10.82;;;;;;;;;;4313978;33;20053;-79
2023/08/10 04:17:02;;;;;;;16.48;11.10;;;;;;;;;;4313611;33;20423;-79
2023/08/10 04:19:30;;;;;;;14.68;11.32;;;;;;;;;;4313934;33;20095;-79
2023/08/10 04:21:57;;;;;;;14.18;9.88;;;;;;;;;;4311746;33;20375;-79
2023/08/10 04:24:23;;;;;;;11.88;10.63;;;;;;;;;;4279516;33;20041;-81
2023/08/10 04:26:49;;;;;;;14.63;11.10;;;;;;;;;;4280998;33;20442;-79
2023/08/10 04:29:16;;;;;;;14.15;10.55;;;;;;;;;;4296271;33;20575;-80
2023/08/10 04:31:42;;;;;;;11.80;10.27;;;;;;;;;;4296344;33;20417;-79
2023/08/10 04:34:09;;;;;;;14.27;10.75;;;;;;;;;;4294304;33;20076;-79
2023/08/10 04:36:35;;;;;;;14.10;9.98;;;;;;;;;;4293426;33;20494;-81
2023/08/10 04:39:07;;;;;;;16.75;9.65;;;;;;;;;;4296033;33;20057;-79
2023/08/10 04:41:33;;;;;;;16.05;9.30;;;;;;;;;;4295298;33;20438;-80
2023/08/10 04:43:59;;;;;;;14.90;9.50;;;;;;;;;;4295448;33;20059;-80
2023/08/10 04:46:25;;;;;;;12.30;9.45;;;;;;;;;;4294779;33;20363;-80
2023/08/10 04:48:52;;;;;;;16.73;9.70;;;;;;;;;;4295906;33;20369;-80
2023/08/10 04:51:17;;;;;;;21.80;9.75;;;;;;;;;;4296309;33;20056;-79
2023/08/10 04:53:44;;;;;;;12.70;9.40;;;;;;;;;;4295512;33;20063;-79
2023/08/10 04:56:10;;;;;;;10.00;8.77;;;;;;;;;;4301724;33;20070;-80
2023/08/10 04:58:36;;;;;;;12.48;8.40;;;;;;;;;;4307992;33;20048;-79
2023/08/10 05:01:02;;;;;;;12.13;8.98;;;;;;;;;;4308236;33;20064;-79
2023/08/10 05:03:29;;;;;;;12.37;8.23;;;;;;;;;;4309760;33;20082;-80
2023/08/10 05:05:55;;;;;;;15.18;9.20;;;;;;;;;;4280225;33;20093;-80
2023/08/10 05:08:22;;;;;;;13.23;8.88;;;;;;;;;;4280452;33;20053;-79
2023/08/10 05:10:49;;;;;;;12.10;8.73;;;;;;;;;;4279096;33;20212;-79
2023/08/10 05:13:16;;;;;;;12.55;8.45;;;;;;;;;;4282008;33;20219;-79
2023/08/10 05:15:41;;;;;;;9.20;7.75;;;;;;;;;;4280510;33;20033;-79
2023/08/10 05:18:08;;;;;;;7.87;7.12;;;;;;;;;;4308097;33;20103;-78
2023/08/10 05:20:34;;;;;;;14.35;8.48;;;;;;;;;;4309744;33;20426;-80
2023/08/10 05:23:00;;;;;;;8.05;6.95;;;;;;;;;;4308141;33;20064;-83
2023/08/10 05:25:26;;;;;;;8.82;6.50;;;;;;;;;;4309546;33;20070;-78
2023/08/10 05:27:52;;;;;;;10.70;6.65;;;;;;;;;;4309829;33;20062;-79
2023/08/10 05:30:18;;;;;;;8.38;6.28;;;;;;;;;;4308597;33;20572;-80
2023/08/10 05:32:45;;;;;;;13.85;6.50;;;;;;;;;;4310085;33;20057;-80
2023/08/10 05:35:11;;;;;;;6.12;5.15;;;;;;;;;;4292068;33;20109;-80
2023/08/10 05:37:38;;;;;;;5.82;4.68;;;;;;;;;;4296432;33;20056;-79
2023/08/10 05:40:09;;;;;;;10.48;5.15;;;;;;;;;;4295211;33;20037;-80
2023/08/10 05:42:36;;;;;;;6.78;5.22;;;;;;;;;;4294976;33;20060;-80
2023/08/10 05:45:02;;;;;;;6.30;4.75;;;;;;;;;;4293216;33;20121;-83
2023/08/10 05:47:29;;;;;;;15.30;5.20;;;;;;;;;;4293806;33;20045;-79
2023/08/10 05:49:54;;;;;;;7.22;4.60;;;;;;;;;;4282574;33;20067;-80
2023/08/10 05:52:27;;;;;;;9.88;4.18;;;;;;;;;;4280285;33;20083;-81
2023/08/10 05:54:53;;;;;;;6.43;4.35;;;;;;;;;;4281301;33;20037;-80
2023/08/10 05:57:19;;;;;;;9.68;3.87;;;;;;;;;;4279261;33;20184;-82
2023/08/10 05:59:45;;;;;;;8.60;4.87;;;;;;;;;;4280399;33;20053;-80
2023/08/10 06:02:12;;;;;;;9.35;4.35;;;;;;;;;;4279830;33;20490;-81
2023/08/10 06:04:40;;;;;;;5.45;4.30;;;;;;;;;;4280942;33;20072;-80
2023/08/10 06:07:06;;;;;;;8.25;3.70;;;;;;;;;;4279708;33;20049;-79
2023/08/10 06:09:32;;;;;;;8.35;4.12;;;;;;;;;;4278528;33;20055;-81
2023/08/10 06:11:59;;;;;;;4.10;3.70;;;;;;;;;;4279673;33;20075;-81
2023/08/10 06:14:25;;;;;;;4.87;3.20;;;;;;;;;;4265587;33;20360;-80
2023/08/10 06:16:51;;;;;;;3.55;3.08;;;;;;;;;;4251429;33;20068;-81
2023/08/10 06:19:17;;;;;;;5.87;3.40;;;;;;;;;;4235972;33;20080;-81
2023/08/10 06:21:43;;;;;;;7.25;2.85;;;;;;;;;;4236080;33;20062;-84
2023/08/10 06:24:11;;;;;;;4.30;2.37;;;;;;;;;;4236913;33;20022;-79
2023/08/10 06:26:37;;;;;;;6.57;2.60;;;;;;;;;;4235613;33;20412;-79
2023/08/10 06:29:03;;;;;;;6.70;2.50;;;;;;;;;;4223348;33;20065;-80
2023/08/10 06:31:30;;;;;;;5.20;2.83;;;;;;;;;;4224050;34;20061;-81
2023/08/10 06:33:56;;;;;;;3.90;2.37;;;;;;;;;;4220579;34;20054;-81
2023/08/10 06:36:23;;;;;;;9.02;2.90;;;;;;;;;;4223207;34;20101;-80
2023/08/10 06:38:49;;;;;;;2.50;1.95;;;;;;;;;;4236441;33;20036;-79
2023/08/10 06:41:16;;;;;;;11.32;2.05;;;;;;;;;;4237153;33;20117;-79
2023/08/10 06:43:42;;;;;;;4.80;2.08;;;;;;;;;;4237291;33;20061;-80
2023/08/10 06:46:09;;;;;;;2.53;1.70;;;;;;;;;;4257998;33;20057;-80
2023/08/10 06:48:35;;;;;;;3.78;2.30;;;;;;;;;;4266212;33;20479;-79
2023/08/10 06:51:01;;;;;;;7.05;2.25;;;;;;;;;;4275918;33;20364;-81
2023/08/10 06:53:27;;;;;;;2.80;2.42;;;;;;;;;;4279315;33;20034;-80
2023/08/10 06:55:54;;;;;;;5.03;1.90;;;;;;;;;;4281362;33;20061;-79
2023/08/10 06:58:19;;;;;;;4.03;2.42;;;;;;;;;;4276524;33;20051;-80
2023/08/10 07:00:46;;;;;;;4.85;1.67;;;;;;;;;;4254503;33;20256;-80
2023/08/10 07:03:12;;;;;;;4.85;2.03;;;;;;;;;;4250431;33;20050;-80
2023/08/10 07:05:38;;;;;;;13.10;2.08;;;;;;;;;;4252142;33;20107;-80
2023/08/10 07:08:04;;;;;;;2.22;1.55;;;;;;;;;;4248701;33;20486;-80
2023/08/10 07:10:31;;;;;;;5.12;1.58;;;;;;;;;;4284180;33;20204;-80
2023/08/10 07:12:57;;;;;;;3.65;1.65;;;;;;;;;;4293042;33;20045;-80
2023/08/10 07:15:23;;;;;;;9.48;2.58;;;;;;;;;;4278643;33;20071;-80
2023/08/10 07:17:49;;;;;;;2.55;1.33;;;;;;;;;;4279404;33;20045;-83
2023/08/10 07:20:18;;;;;;;7.10;1.75;;;;;;;;;;4277806;33;20444;-78
2023/08/10 07:22:45;;;;;;;3.30;1.70;;;;;;;;;;4277752;33;20049;-80
2023/08/10 07:25:12;;;;;;;2.17;1.60;;;;;;;;;;4278420;33;20414;-79
2023/08/10 07:27:38;;;;;;;5.93;1.65;;;;;;;;;;4278348;33;20110;-79
2023/08/10 07:30:04;;;;;;;8.77;1.83;;;;;;;;;;4262269;33;20072;-80
2023/08/10 07:32:31;;;;;;;2.03;1.40;;;;;;;;;;4263082;33;20071;-80
2023/08/10 07:34:57;;;;;;;4.47;1.75;;;;;;;;;;4279062;33;20207;-79
2023/08/10 07:37:23;;;;;;;6.95;2.00;;;;;;;;;;4279234;33;20444;-79
2023/08/10 07:39:49;;;;;;;3.05;1.23;;;;;;;;;;4248946;33;20080;-81
2023/08/10 07:42:15;;;;;;;5.00;1.30;;;;;;;;;;4251873;33;20453;-81
2023/08/10 07:44:42;;;;;;;2.42;1.27;;;;;;;;;;4251473;33;20046;-79
2023/08/10 07:47:08;;;;;;;2.72;1.42;;;;;;;;;;4253495;33;20056;-79
2023/08/10 07:49:34;;;;;;;5.28;1.35;;;;;;;;;;4253654;33;20054;-79
2023/08/10 07:52:00;;;;;;;3.28;1.75;;;;;;;;;;4252378;33;20096;-81
2023/08/10 07:54:27;;;;;;;1.30;1.10;;;;;;;;;;4250718;33;20038;-81
2023/08/10 07:56:52;;;;;;;4.10;1.80;;;;;;;;;;4237873;33;20046;-79
2023/08/10 07:59:19;;;;;;;6.95;1.20;;;;;;;;;;4238618;33;20404;-80
2023/08/10 08:01:45;;;;;;;1.00;1.00;;;;;;;;;;4239225;33;20111;-80
2023/08/10 08:04:12;;;;;;;7.72;1.17;;;;;;;;;;4227318;33;20054;-80
2023/08/10 08:06:38;;;;;;;1.50;1.40;;;;;;;;;;4213949;33;20101;-86
2023/08/10 08:09:08;;;;;;;3.67;1.35;;;;;;;;;;4207788;34;20118;-80
2023/08/10 08:12:02;;;;;;;1.67;1.05;;;;;;;;;;4220006;33;20035;-83
2023/08/10 08:14:29;;;;;;;2.72;1.45;;;;;;;;;;4224255;33;20056;-80
2023/08/10 08:16:55;;;;;;;1.83;1.42;;;;;;;;;;4239211;33;20484;-82
2023/08/10 08:19:22;;;;;;;3.55;1.12;;;;;;;;;;4239039;33;20054;-81
2023/08/10 08:21:48;;;;;;;1.85;0.80;;;;;;;;;;4238833;33;20064;-79
2023/08/10 08:24:15;;;;;;;1.33;1.12;;;;;;;;;;4240159;33;20372;-79
2023/08/10 08:26:41;;;;;;;2.83;0.93;;;;;;;;;;4238328;33;20106;-84
2023/08/10 08:29:07;;;;;;;4.03;1.37;;;;;;;;;;4267377;33;20050;-80
2023/08/10 08:31:35;;;;;;;5.37;0.88;;;;;;;;;;4282289;33;20211;-80
2023/08/10 08:34:01;;;;;;;2.08;0.73;;;;;;;;;;4282493;33;20053;-80
2023/08/10 08:36:27;;;;;;;1.35;1.10;;;;;;;;;;4297685;33;20119;-79
2023/08/10 08:38:54;;;;;;;2.55;1.05;;;;;;;;;;4297177;33;20049;-84
2023/08/10 08:41:21;;;;;;;1.35;0.80;;;;;;;;;;4298629;33;20440;-79
2023/08/10 08:43:53;;;;;;;1.33;0.82;;;;;;;;;;4300429;33;20114;-83
2023/08/10 08:46:29;;;;;;;2.22;0.88;;;;;;;;;;4308299;33;20037;-81
2023/08/10 08:49:04;;;;;;;2.65;1.60;;;;;;;;;;4310573;33;20044;-81
2023/08/10 08:51:31;;;;;;;3.67;0.90;;;;;;;;;;4302288;33;20380;-79
2023/08/10 08:54:00;;;;;;;2.65;1.00;;;;;;;;;;4304473;33;20041;-80
2023/08/10 08:56:26;;;;;;;4.97;1.77;;;;;;;;;;4303354;33;20374;-80
2023/08/10 08:58:53;;;;;;;6.32;0.70;;;;;;;;;;4297424;33;20049;-84
2023/08/10 09:01:19;;;;;;;2.55;1.05;;;;;;;;;;4297304;33;20044;-80
2023/08/10 09:03:46;;;;;;;2.45;0.90;;;;;;;;;;4298151;33;20482;-81
2023/08/10 09:06:12;;;;;;;1.55;0.80;;;;;;;;;;4300563;33;20044;-78
2023/08/10 09:08:38;;;;;;;6.20;2.67;;;;;;;;;;4302594;33;20098;-79
2023/08/10 09:11:05;;;;;;;1.17;0.70;;;;;;;;;;4307027;33;20112;-85
2023/08/10 09:13:31;;;;;;;0.75;0.73;;;;;;;;;;4304388;33;20048;-81
2023/08/10 09:16:04;;;;;;;2.92;1.05;;;;;;;;;;4304394;33;20477;-81
2023/08/10 09:18:32;;;;;;;2.95;1.87;;;;;;;;;;4300125;33;20045;-79
2023/08/10 09:21:12;;;;;;;3.60;1.00;;;;;;;;;;4297774;33;20125;-83
2023/08/10 09:23:38;;;;;;;1.27;1.17;;;;;;;;;;4298290;33;20745;-79
2023/08/10 09:26:11;;;;;;;1.83;0.80;;;;;;;;;;4297427;33;20388;-79
2023/08/10 09:28:37;;;;;;;1.10;1.00;;;;;;;;;;4295223;33;20049;-81
2023/08/10 09:31:04;;;;;;;1.30;1.20;;;;;;;;;;4293832;33;20168;-83
2023/08/10 09:33:38;;;;;;;3.03;1.10;;;;;;;;;;4295277;33;20049;-80
2023/08/10 09:36:05;;;;;;;7.15;1.02;;;;;;;;;;4302343;33;20036;-81
2023/08/10 09:38:32;;;;;;;1.17;0.93;;;;;;;;;;4305083;33;20091;-81
2023/08/10 09:41:11;;;;;;;1.55;1.15;;;;;;;;;;4302056;33;20070;-80
2023/08/10 09:43:38;;;;;;;1.55;0.90;;;;;;;;;;4303081;33;20045;-79
2023/08/10 09:46:05;;;;;;;5.20;1.27;;;;;;;;;;4273792;33;20436;-80
2023/08/10 09:48:35;;;;;;;1.62;0.90;;;;;;;;;;4272121;33;20042;-79
2023/08/10 09:51:02;;;;;;;2.87;1.02;;;;;;;;;;4272023;33;20342;-80
2023/08/10 09:53:29;;;;;;;6.90;1.30;;;;;;;;;;4270513;33;20355;-80
2023/08/10 09:55:55;;;;;;;7.22;1.12;;;;;;;;;;4267293;33;20055;-79
2023/08/10 09:58:22;;;;;;;3.25;1.30;;;;;;;;;;4261779;33;20217;-78
2023/08/10 10:00:49;;;;;;;10.23;1.20;;;;;;;;;;4265281;33;20046;-81
2023/08/10 10:03:22;;;;;;;1.98;1.00;;;;;;;;;;4263717;33;20326;-80
2023/08/10 10:05:49;;;;;;;2.10;0.95;;;;;;;;;;4273014;33;20127;-80
2023/08/10 10:08:16;;;;;;;6.62;0.90;;;;;;;;;;4280063;33;20357;-79
2023/08/10 10:10:43;;;;;;;2.12;1.27;;;;;;;;;;4281003;33;20034;-79
2023/08/10 10:13:15;;;;;;;1.65;0.93;;;;;;;;;;4278131;33;20041;-80
2023/08/10 10:15:42;;;;;;;1.52;0.90;;;;;;;;;;4264502;33;20112;-80
2023/08/10 10:18:09;;;;;;;1.48;0.90;;;;;;;;;;4266112;33;20093;-80
2023/08/10 10:20:38;;;;;;;4.03;0.90;;;;;;;;;;4265536;33;20120;-79
2023/08/10 10:23:04;;;;;;;1.35;0.95;;;;;;;;;;4266582;33;20057;-82
2023/08/10 10:25:30;;;;;;;3.60;0.93;;;;;;;;;;4279648;33;20088;-78
2023/08/10 10:27:57;;;;;;;3.20;0.70;;;;;;;;;;4277503;33;20049;-79
2023/08/10 10:30:24;;;;;;;2.00;1.10;;;;;;;;;;4280992;33;20090;-80
2023/08/10 10:32:51;;;;;;;0.95;0.95;;;;;;;;;;4279346;33;20049;-79
2023/08/10 10:35:20;;;;;;;1.55;0.88;;;;;;;;;;4276318;33;20318;-84
2023/08/10 10:37:54;;;;;;;6.78;1.10;;;;;;;;;;4268808;33;20372;-79
2023/08/10 10:40:23;;;;;;;1.42;0.98;;;;;;;;;;4277293;33;20050;-78
2023/08/10 10:43:04;;;;;;;3.47;1.02;;;;;;;;;;4278684;33;20401;-78
2023/08/10 10:45:36;;;;;;;7.32;1.62;;;;;;;;;;4279909;33;20322;-79
2023/08/10 10:48:04;;;;;;;2.78;1.23;;;;;;;;;;4307487;33;20079;-79
2023/08/10 10:50:30;;;;;;;4.68;2.42;;;;;;;;;;4308345;33;20066;-79
2023/08/10 10:53:00;;;;;;;1.65;1.08;;;;;;;;;;4307793;33;20041;-80
2023/08/10 10:55:35;;;;;;;1.30;1.00;;;;;;;;;;4308956;33;20713;-79
2023/08/10 10:58:02;;;;;;;4.22;1.00;;;;;;;;;;4307968;33;20056;-80
2023/08/10 11:03:19;;;;;;;4.15;1.30;;;;;;;;;;4289990;33;20219;-82
2023/08/10 11:05:46;;;;;;;2.37;1.20;;;;;;;;;;4292097;33;20049;-79
2023/08/10 11:08:14;;;;;;;2.60;1.00;;;;;;;;;;4306627;33;20196;-78
2023/08/10 11:10:43;;;;;;;1.30;1.20;;;;;;;;;;4312043;33;20074;-79
2023/08/10 11:13:10;;;;;;;2.85;1.08;;;;;;;;;;4322940;33;20048;-78
2023/08/10 11:15:36;;;;;;;2.58;1.10;;;;;;;;;;4313218;33;20074;-80
2023/08/10 11:18:08;;;;;;;1.08;0.95;;;;;;;;;;4315215;33;20080;-78
2023/08/10 11:20:35;;;;;;;1.67;1.33;;;;;;;;;;4323877;33;20044;-80
2023/08/10 11:23:00;;;;;;;1.20;1.00;;;;;;;;;;4324090;33;20396;-79
2023/08/10 11:25:31;;;;;;;4.35;1.33;;;;;;;;;;4323163;33;20071;-79
2023/08/10 11:27:57;;;;;;;2.08;1.30;;;;;;;;;;4322810;33;20037;-80
2023/08/10 11:30:24;;;;;;;2.05;1.45;;;;;;;;;;4279909;33;20041;-79
2023/08/10 11:32:52;;;;;;;4.12;0.98;;;;;;;;;;4280488;33;20037;-80
2023/08/10 11:35:19;;;;;;;1.08;0.98;;;;;;;;;;4279214;33;20516;-80
2023/08/10 11:37:45;;;;;;;2.30;1.17;;;;;;;;;;4262282;33;20046;-81
2023/08/10 11:40:16;;;;;;;4.90;1.45;;;;;;;;;;4253537;33;20135;-80
2023/08/10 11:42:43;;;;;;;4.70;1.50;;;;;;;;;;4250107;33;20081;-79
2023/08/10 11:45:16;;;;;;;4.10;1.08;;;;;;;;;;4251993;33;20042;-80
2023/08/10 11:47:45;;;;;;;4.68;1.23;;;;;;;;;;4249844;33;20064;-79
2023/08/10 11:50:13;;;;;;;6.53;1.20;;;;;;;;;;4251259;33;20267;-80
2023/08/10 11:52:40;;;;;;;1.70;1.02;;;;;;;;;;4252004;33;20052;-79
2023/08/10 11:55:12;;;;;;;3.58;1.10;;;;;;;;;;4251729;33;20050;-80
2023/08/10 11:57:42;;;;;;;5.68;1.50;;;;;;;;;;4256871;33;20071;-76
2023/08/10 12:00:16;;;;;;;3.50;2.95;;;;;;;;;;4245189;33;20064;-79
2023/08/10 12:02:55;;;;;;;1.98;1.60;;;;;;;;;;4295218;33;20149;-82
2023/08/10 12:05:37;;;;;;;1.45;1.00;;;;;;;;;;4294665;33;20071;-80
2023/08/10 12:08:04;;;;;;;1.60;1.00;;;;;;;;;;4303550;33;20522;-81
2023/08/10 12:10:41;;;;;;;4.20;1.10;;;;;;;;;;4303556;33;20037;-81
2023/08/10 12:13:10;;;;;;;1.25;1.15;;;;;;;;;;4304811;33;20036;-81
2023/08/10 12:15:38;;;;;;;2.70;1.40;;;;;;;;;;4305975;33;20053;-81
2023/08/10 12:18:05;;;;;;;2.62;1.27;;;;;;;;;;4303139;33;20059;-80
2023/08/10 12:20:34;;;;;;;3.65;1.65;;;;;;;;;;4300707;33;20061;-82
2023/08/10 12:23:00;;;;;;;1.95;1.40;;;;;;;;;;4302763;33;20833;-81
2023/08/10 12:25:33;;;;;;;1.25;1.15;;;;;;;;;;4303726;33;20049;-79
2023/08/10 12:27:59;;;;;;;3.35;1.20;;;;;;;;;;4307072;33;20114;-82
2023/08/10 12:30:25;;;;;;;5.07;1.10;;;;;;;;;;4310162;33;20391;-84
2023/08/10 12:32:51;;;;;;;3.70;1.52;;;;;;;;;;4309473;33;20239;-83
2023/08/10 12:35:24;;;;;;;4.18;1.73;;;;;;;;;;4298711;33;20075;-81
2023/08/10 12:37:50;;;;;;;1.65;1.33;;;;;;;;;;4298900;33;20386;-81
2023/08/10 12:40:16;;;;;;;1.95;1.30;;;;;;;;;;4299704;33;20064;-81
2023/08/10 12:42:43;;;;;;;2.80;1.27;;;;;;;;;;4296235;33;20084;-82
2023/08/10 12:45:12;;;;;;;1.52;1.25;;;;;;;;;;4300025;33;20157;-82
2023/08/10 12:47:41;;;;;;;1.30;1.00;;;;;;;;;;4311634;33;20098;-81
2023/08/10 12:50:17;;;;;;;4.62;1.35;;;;;;;;;;4310441;33;20040;-82
2023/08/10 12:52:45;;;;;;;3.65;1.52;;;;;;;;;;4311030;33;20038;-81
2023/08/10 12:55:12;;;;;;;4.75;1.27;;;;;;;;;;4310903;33;20085;-82
2023/08/10 12:57:39;;;;;;;2.40;1.30;;;;;;;;;;4306625;33;20055;-81
2023/08/10 13:00:08;;;;;;;2.70;1.10;;;;;;;;;;4310061;33;20049;-80
2023/08/10 13:02:34;;;;;;;3.00;1.23;;;;;;;;;;4310499;33;20065;-83
2023/08/10 13:05:01;;;;;;;4.97;1.40;;;;;;;;;;4309184;33;20118;-81
2023/08/10 13:07:27;;;;;;;6.65;1.48;;;;;;;;;;4311459;33;20158;-80
2023/08/10 13:09:53;;;;;;;1.15;0.95;;;;;;;;;;4309583;33;20379;-81
2023/08/10 13:12:19;;;;;;;1.20;1.10;;;;;;;;;;4310017;33;20126;-81
2023/08/10 13:14:45;;;;;;;3.28;1.10;;;;;;;;;;4278386;33;20049;-82
2023/08/10 13:17:11;;;;;;;1.30;0.88;;;;;;;;;;4280034;33;20489;-81
2023/08/10 13:19:38;;;;;;;3.72;1.20;;;;;;;;;;4282660;33;20072;-81
2023/08/10 13:22:07;;;;;;;1.98;1.25;;;;;;;;;;4280115;33;20049;-80
2023/08/10 13:24:33;;;;;;;2.40;1.08;;;;;;;;;;4273865;33;20042;-82
2023/08/10 13:27:01;;;;;;;2.47;1.05;;;;;;;;;;4264107;33;20445;-80
2023/08/10 13:29:29;;;;;;;1.05;0.90;;;;;;;;;;4266607;33;20639;-82
2023/08/10 13:31:55;;;;;;;1.73;1.62;;;;;;;;;;4265271;33;20079;-81
2023/08/10 13:34:21;;;;;;;0.90;0.90;;;;;;;;;;4274441;33;20049;-82
2023/08/10 13:36:48;;;;;;;4.05;1.10;;;;;;;;;;4241026;33;20064;-82
2023/08/10 13:39:14;;;;;;;6.10;1.00;;;;;;;;;;4235297;33;20089;-80
2023/08/10 13:41:40;;;;;;;3.22;1.10;;;;;;;;;;4239164;33;20054;-81
2023/08/10 13:44:06;;;;;;;1.10;0.98;;;;;;;;;;4238041;33;20046;-80
2023/08/10 13:46:32;;;;;;;2.70;1.30;;;;;;;;;;4250471;33;20530;-80
2023/08/10 13:48:59;;;;;;;3.70;1.10;;;;;;;;;;4251174;33;20042;-81
2023/08/10 13:51:25;;;;;;;6.70;2.55;;;;;;;;;;4252080;33;20120;-81
2023/08/10 13:53:51;;;;;;;1.12;0.90;;;;;;;;;;4252530;33;20076;-81
2023/08/10 13:56:19;;;;;;;2.87;0.93;;;;;;;;;;4252536;33;20057;-82
2023/08/10 13:58:45;;;;;;;1.27;0.93;;;;;;;;;;4253490;33;20516;-80
2023/08/10 14:01:12;;;;;;;2.58;1.10;;;;;;;;;;4257249;33;20018;-83
2023/08/10 14:03:39;;;;;;;2.67;1.42;;;;;;;;;;4269002;33;20221;-82
2023/08/10 14:06:08;;;;;;;1.40;1.20;;;;;;;;;;4272350;33;20440;-83
2023/08/10 14:08:35;;;;;;;1.17;1.08;;;;;;;;;;4288876;33;20042;-84
2023/08/10 14:11:07;;;;;;;1.62;0.95;;;;;;;;;;4297072;33;20206;-81
2023/08/10 14:13:34;;;;;;;0.93;0.93;;;;;;;;;;4297996;33;20398;-84
2023/08/10 14:15:59;;;;;;;2.12;0.95;;;;;;;;;;4289602;33;20114;-81
2023/08/10 14:18:26;;;;;;;1.50;1.02;;;;;;;;;;4295238;33;20050;-82
2023/08/10 14:20:52;;;;;;;1.90;1.02;;;;;;;;;;4297576;33;20408;-86
2023/08/10 14:23:19;;;;;;;4.97;2.80;;;;;;;;;;4263735;33;20062;-79
2023/08/10 14:25:45;;;;;;;0.95;0.95;;;;;;;;;;4266102;33;20046;-83
2023/08/10 14:28:11;;;;;;;2.40;1.35;;;;;;;;;;4264479;33;20055;-83
2023/08/10 14:30:37;;;;;;;1.05;1.05;;;;;;;;;;4265137;33;20038;-81
2023/08/10 14:33:03;;;;;;;1.02;0.90;;;;;;;;;;4263410;33;20508;-79
2023/08/10 14:35:29;;;;;;;1.98;1.02;;;;;;;;;;4264162;33;20121;-81
2023/08/10 14:37:55;;;;;;;2.47;0.82;;;;;;;;;;4267033;33;20045;-79
2023/08/10 14:40:22;;;;;;;0.80;0.80;;;;;;;;;;4263531;33;20119;-80
2023/08/10 14:42:48;;;;;;;2.35;1.52;;;;;;;;;;4263380;33;20046;-80
2023/08/10 14:45:14;;;;;;;0.82;0.82;;;;;;;;;;4264693;33;20396;-79
2023/08/10 14:47:54;;;;;;;4.35;1.10;;;;;;;;;;4254356;33;20071;-81
2023/08/10 14:50:20;;;;;;;3.28;1.10;;;;;;;;;;4266219;33;20039;-80
2023/08/10 14:52:46;;;;;;;1.33;1.00;;;;;;;;;;4261138;33;20059;-82
2023/08/10 14:55:12;;;;;;;3.03;1.00;;;;;;;;;;4266342;33;20077;-79
2023/08/10 14:57:39;;;;;;;1.27;1.15;;;;;;;;;;4263752;33;20206;-79
2023/08/10 15:00:06;;;;;;;1.42;1.30;;;;;;;;;;4262849;33;20042;-80
2023/08/10 15:02:33;;;;;;;10.38;1.27;;;;;;;;;;4262484;33;20102;-81
2023/08/10 15:04:59;;;;;;;2.20;1.40;;;;;;;;;;4247651;33;20039;-82
2023/08/10 15:07:27;;;;;;;1.42;0.95;;;;;;;;;;4241796;33;20051;-80
2023/08/10 15:09:53;;;;;;;0.98;0.98;;;;;;;;;;4253218;33;20102;-80
2023/08/10 15:12:20;;;;;;;4.95;1.30;;;;;;;;;;4255906;33;20387;-80
2023/08/10 15:14:46;;;;;;;1.55;1.23;;;;;;;;;;4256756;33;20038;-79
2023/08/10 15:17:12;;;;;;;4.85;1.08;;;;;;;;;;4257792;33;20164;-80
2023/08/10 15:19:38;;;;;;;6.45;2.55;;;;;;;;;;4208075;34;20028;-81
2023/08/10 15:22:06;;;;;;;2.30;1.05;;;;;;;;;;4211639;34;20521;-79
2023/08/10 15:24:33;;;;;;;10.35;1.23;;;;;;;;;;4209161;34;20150;-81
2023/08/10 15:27:01;;;;;;;3.92;1.00;;;;;;;;;;4207811;34;20095;-80
2023/08/10 15:29:28;;;;;;;0.90;0.90;;;;;;;;;;4198707;34;20414;-80
2023/08/10 15:31:58;;;;;;;7.30;1.05;;;;;;;;;;4193069;34;20039;-78
2023/08/10 15:34:24;;;;;;;1.02;1.02;;;;;;;;;;4194188;34;20043;-78
2023/08/10 15:36:51;;;;;;;1.20;1.10;;;;;;;;;;4208786;34;20432;-79
2023/08/10 15:39:17;;;;;;;1.80;1.15;;;;;;;;;;4220441;33;20064;-80
2023/08/10 15:41:43;;;;;;;8.23;1.20;;;;;;;;;;4229214;33;20046;-79
2023/08/10 15:44:09;;;;;;;2.92;1.23;;;;;;;;;;4256134;33;20053;-78
2023/08/10 15:46:35;;;;;;;0.88;0.88;;;;;;;;;;4261270;33;20058;-78
2023/08/10 15:49:02;;;;;;;1.05;0.90;;;;;;;;;;4256780;33;20220;-79
2023/08/10 15:51:29;;;;;;;1.33;1.23;;;;;;;;;;4270341;33;20063;-78
2023/08/10 15:53:55;;;;;;;1.60;1.08;;;;;;;;;;4278349;33;20110;-79
2023/08/10 15:56:21;;;;;;;1.10;0.90;;;;;;;;;;4249517;33;20121;-79
2023/08/10 15:58:47;;;;;;;8.00;1.27;;;;;;;;;;4221803;34;20055;-79
2023/08/10 16:01:13;;;;;;;1.15;1.08;;;;;;;;;;4223242;33;20042;-80
2023/08/10 16:03:40;;;;;;;3.50;1.30;;;;;;;;;;4209791;34;20069;-79
2023/08/10 16:06:06;;;;;;;2.10;1.27;;;;;;;;;;4208376;34;20066;-82
2023/08/10 16:08:32;;;;;;;2.12;1.50;;;;;;;;;;4210605;34;20556;-80
2023/08/10 16:10:59;;;;;;;3.87;1.77;;;;;;;;;;4210808;34;20458;-79
2023/08/10 16:13:25;;;;;;;3.90;2.17;;;;;;;;;;4224621;34;20031;-79
2023/08/10 16:15:51;;;;;;;1.85;1.75;;;;;;;;;;4225131;34;20050;-78
2023/08/10 16:18:17;;;;;;;2.55;1.17;;;;;;;;;;4223255;34;20405;-80
2023/08/10 16:20:44;;;;;;;1.80;1.60;;;;;;;;;;4210555;34;20038;-79
2023/08/10 16:23:10;;;;;;;4.15;1.48;;;;;;;;;;4210172;34;20055;-79
2023/08/10 16:25:37;;;;;;;3.00;2.20;;;;;;;;;;4211438;34;20061;-78
2023/08/10 16:28:03;;;;;;;4.80;1.40;;;;;;;;;;4230849;33;20066;-79
2023/08/10 16:30:29;;;;;;;4.50;1.62;;;;;;;;;;4230219;33;20043;-80
2023/08/10 16:32:55;;;;;;;4.37;1.48;;;;;;;;;;4235991;33;20030;-79
2023/08/10 16:35:21;;;;;;;1.92;1.17;;;;;;;;;;4238734;33;20140;-79
2023/08/10 16:37:47;;;;;;;3.97;1.30;;;;;;;;;;4238130;33;20106;-80